Time;durP1;ratioP1;P1;durP2;ratioP2;P2;SDS_P1;SDS_P2;PMS_P1;PMS_P2;Temp;Humidity;BMP_temperature;BMP_pressure;BME280_temperature;BME280_humidity;BME280_pressure;Samples;Min_cycle;Max_cycle;Signal;HPM_P1;HPM_P2
2022/07/12 00:01:30;;;;;;;4.47;3.17;;;;;;;17.57;85.98;102352.16;5013676;28;20493;-28
2022/07/12 00:03:56;;;;;;;3.95;3.33;;;;;;;17.54;85.34;102341.66;5015243;28;20096;-29
2022/07/12 00:06:21;;;;;;;5.35;3.30;;;;;;;17.53;85.45;102350.84;5014141;28;20047;-28
2022/07/12 00:08:47;;;;;;;3.80;3.05;;;;;;;17.50;85.99;102351.25;5013642;28;20208;-28
2022/07/12 00:11:12;;;;;;;4.93;3.42;;;;;;;17.50;86.27;102349.34;5012881;28;20030;-28
2022/07/12 00:13:38;;;;;;;3.10;2.75;;;;;;;17.52;86.25;102351.91;5013455;28;20026;-28
2022/07/12 00:16:03;;;;;;;5.60;3.20;;;;;;;17.51;86.08;102352.94;5011466;28;20061;-30
2022/07/12 00:18:29;;;;;;;6.57;3.78;;;;;;;17.53;85.73;102345.41;5012395;28;20108;-28
2022/07/12 00:20:54;;;;;;;5.90;3.30;;;;;;;17.50;85.25;102345.78;5011986;28;20061;-27
2022/07/12 00:23:19;;;;;;;6.57;3.50;;;;;;;17.45;85.68;102337.34;5012426;28;20041;-27
2022/07/12 00:25:45;;;;;;;7.28;3.53;;;;;;;17.42;86.14;102332.31;5012152;28;20353;-28
2022/07/12 00:28:10;;;;;;;5.75;3.58;;;;;;;17.41;86.58;102336.06;5012031;28;20042;-28
2022/07/12 00:30:35;;;;;;;6.05;4.00;;;;;;;17.43;86.80;102328.53;5012512;28;20072;-28
2022/07/12 00:33:01;;;;;;;5.40;3.92;;;;;;;17.40;86.53;102329.75;5009517;28;20038;-28
2022/07/12 00:35:26;;;;;;;5.63;3.78;;;;;;;17.41;86.55;102331.47;4999530;28;20052;-28
2022/07/12 00:37:52;;;;;;;7.57;3.67;;;;;;;17.41;86.32;102326.03;5012555;28;20029;-29
2022/07/12 00:40:17;;;;;;;4.05;3.65;;;;;;;17.38;86.78;102331.84;5012780;28;20030;-27
2022/07/12 00:42:43;;;;;;;7.80;4.80;;;;;;;17.33;86.88;102335.13;5012148;28;20105;-28
2022/07/12 00:45:09;;;;;;;6.53;3.95;;;;;;;17.32;87.20;102335.31;5013198;28;20549;-28
2022/07/12 00:47:40;;;;;;;5.85;4.63;;;;;;;17.32;87.13;102330.75;5012690;28;20046;-28
2022/07/12 00:50:07;;;;;;;5.60;3.70;;;;;;;17.29;87.09;102328.38;5006288;28;20044;-30
2022/07/12 00:52:33;;;;;;;4.47;4.00;;;;;;;17.25;87.25;102324.38;5012703;28;20042;-29
2022/07/12 00:54:58;;;;;;;9.52;4.28;;;;;;;17.22;87.30;102324.75;5012681;28;20061;-29
2022/07/12 00:57:24;;;;;;;5.72;4.97;;;;;;;17.22;88.02;102319.31;5012462;28;20037;-28
2022/07/12 00:59:49;;;;;;;4.95;3.80;;;;;;;17.23;88.10;102317.41;5010671;28;20043;-29
2022/07/12 01:02:15;;;;;;;6.97;4.57;;;;;;;17.23;87.55;102306.53;5011759;28;20068;-29
2022/07/12 01:04:41;;;;;;;6.85;3.90;;;;;;;17.19;86.97;102316.94;5012079;28;20496;-28
2022/07/12 01:07:06;;;;;;;9.15;4.05;;;;;;;17.14;86.88;102318.53;5012560;28;20444;-27
2022/07/12 01:09:32;;;;;;;8.57;4.18;;;;;;;17.10;87.30;102310.78;5015704;28;20436;-28
2022/07/12 01:11:58;;;;;;;7.18;3.95;;;;;;;17.10;87.32;102304.50;5014741;28;20092;-28
2022/07/12 01:14:23;;;;;;;6.57;3.95;;;;;;;17.10;86.92;102318.09;5010419;28;20038;-28
2022/07/12 01:16:49;;;;;;;5.32;4.60;;;;;;;17.06;86.97;102311.31;5009879;28;20038;-28
2022/07/12 01:19:20;;;;;;;5.95;4.20;;;;;;;17.04;86.96;102305.25;5007091;28;20034;-28
2022/07/12 01:21:46;;;;;;;7.30;4.22;;;;;;;17.00;87.74;102312.09;5008349;28;20030;-27
2022/07/12 01:24:12;;;;;;;6.32;4.32;;;;;;;16.98;87.76;102319.59;5010245;28;20018;-29
2022/07/12 01:26:38;;;;;;;5.30;4.15;;;;;;;16.97;87.97;102323.34;5010713;28;20037;-29
2022/07/12 01:29:05;;;;;;;4.30;3.67;;;;;;;16.97;87.69;102321.47;5011104;28;20028;-29
2022/07/12 01:31:30;;;;;;;5.03;4.30;;;;;;;16.98;87.72;102322.31;5011802;28;20076;-30
2022/07/12 01:33:55;;;;;;;5.75;4.47;;;;;;;16.93;86.88;102317.47;5010034;28;20434;-29
2022/07/12 01:36:21;;;;;;;6.05;4.28;;;;;;;16.94;87.49;102326.44;5011518;28;20029;-29
2022/07/12 01:38:46;;;;;;;5.82;4.60;;;;;;;16.90;87.51;102334.13;5011111;28;20030;-28
2022/07/12 01:41:11;;;;;;;6.13;4.07;;;;;;;16.87;87.76;102329.06;5011472;28;20104;-30
2022/07/12 01:43:37;;;;;;;7.05;3.95;;;;;;;16.85;87.43;102333.84;5011565;28;20072;-28
2022/07/12 01:46:02;;;;;;;5.70;4.68;;;;;;;16.81;87.28;102336.09;5011595;28;20037;-29
2022/07/12 01:48:27;;;;;;;5.47;4.15;;;;;;;16.79;87.81;102338.16;5011640;28;20034;-29
2022/07/12 01:50:53;;;;;;;9.00;4.90;;;;;;;16.76;87.88;102343.94;5011714;28;20042;-29
2022/07/12 01:53:19;;;;;;;6.70;4.90;;;;;;;16.77;88.07;102336.63;5011508;28;20025;-29
2022/07/12 01:55:44;;;;;;;5.28;4.78;;;;;;;16.75;87.94;102344.97;5010929;28;20541;-30
2022/07/12 01:58:12;;;;;;;6.68;4.22;;;;;;;16.75;87.99;102349.59;5011621;28;20061;-29
2022/07/12 02:00:37;;;;;;;7.28;4.75;;;;;;;16.71;87.54;102351.81;5009812;28;20606;-29
2022/07/12 02:03:02;;;;;;;5.35;4.20;;;;;;;16.71;87.90;102351.81;5011730;28;20050;-29
2022/07/12 02:05:28;;;;;;;8.48;4.25;;;;;;;16.69;87.76;102351.16;5010901;28;20091;-29
2022/07/12 02:07:54;;;;;;;7.53;4.57;;;;;;;16.63;87.39;102355.44;4993295;28;20030;-29
2022/07/12 02:10:19;;;;;;;6.15;4.32;;;;;;;16.61;87.44;102346.66;5010736;28;20435;-28
2022/07/12 02:12:45;;;;;;;5.75;4.45;;;;;;;16.55;87.68;102336.50;5011325;28;20108;-27
2022/07/12 02:15:11;;;;;;;7.32;4.63;;;;;;;16.54;87.50;102337.56;5011205;28;20117;-29
2022/07/12 02:17:36;;;;;;;8.93;4.63;;;;;;;16.48;87.54;102334.72;5011177;28;20479;-29
2022/07/12 02:20:03;;;;;;;8.32;5.28;;;;;;;16.41;88.17;102327.31;5010979;28;20222;-28
2022/07/12 02:22:28;;;;;;;9.20;5.32;;;;;;;16.38;88.81;102324.97;5010781;28;20108;-28
2022/07/12 02:24:54;;;;;;;12.13;5.32;;;;;;;16.38;89.18;102326.84;5011046;28;20033;-29
2022/07/12 02:27:20;;;;;;;9.52;5.50;;;;;;;16.40;89.22;102331.06;5010850;28;20040;-29
2022/07/12 02:29:46;;;;;;;5.60;5.00;;;;;;;16.39;89.05;102334.78;5010811;28;20080;-29
2022/07/12 02:32:11;;;;;;;6.10;5.07;;;;;;;16.36;88.58;102328.91;5010566;28;20026;-29
2022/07/12 02:34:36;;;;;;;9.10;4.72;;;;;;;16.34;88.65;102334.50;5059528;23;20141;-26
2022/07/12 02:37:02;;;;;;;6.78;4.90;;;;;;;16.32;88.63;102324.84;4988275;28;20030;-28
2022/07/12 02:39:28;;;;;;;6.75;5.03;;;;;;;16.32;88.93;102330.28;4990402;28;20030;-29
2022/07/12 02:41:53;;;;;;;7.50;5.30;;;;;;;16.29;88.63;102326.06;4990689;28;20045;-28
2022/07/12 02:44:19;;;;;;;5.78;5.10;;;;;;;16.26;88.66;102340.00;4990725;28;20109;-28
2022/07/12 02:46:46;;;;;;;10.15;5.00;;;;;;;16.18;88.84;102340.91;4990976;28;20461;-29
2022/07/12 02:49:11;;;;;;;4.28;3.88;;;;;;;16.17;89.16;102335.69;4990530;28;20026;-28
2022/07/12 02:51:36;;;;;;;7.78;4.32;;;;;;;16.16;89.09;102336.69;4988352;28;20027;-29
2022/07/12 02:54:02;;;;;;;5.03;4.53;;;;;;;16.10;89.11;102338.28;4990730;28;20065;-29
2022/07/12 02:56:27;;;;;;;7.68;4.35;;;;;;;16.09;89.52;102341.16;4989437;28;20031;-28
2022/07/12 02:58:52;;;;;;;8.63;5.45;;;;;;;16.09;90.10;102343.88;4990335;28;20043;-28
2022/07/12 03:01:18;;;;;;;8.55;5.10;;;;;;;16.07;90.31;102344.06;4989872;28;20026;-28
2022/07/12 03:03:43;;;;;;;7.20;5.10;;;;;;;16.08;90.32;102343.03;4990097;28;20026;-28
2022/07/12 03:06:08;;;;;;;6.00;4.65;;;;;;;16.11;90.40;102344.53;4990209;28;20039;-28
2022/07/12 03:08:34;;;;;;;7.00;4.78;;;;;;;16.09;89.94;102338.44;4990276;28;20035;-28
2022/07/12 03:10:59;;;;;;;5.90;4.95;;;;;;;16.07;89.60;102337.81;4990033;28;20468;-29
2022/07/12 03:13:25;;;;;;;10.25;5.80;;;;;;;16.06;89.33;102330.66;4989657;28;20535;-27
2022/07/12 03:15:50;;;;;;;7.25;5.72;;;;;;;16.01;89.58;102333.94;4989892;28;20030;-28
2022/07/12 03:18:17;;;;;;;6.97;4.97;;;;;;;16.01;90.09;102333.94;4990411;28;20030;-28
2022/07/12 03:20:43;;;;;;;8.23;5.25;;;;;;;16.04;89.85;102339.00;4990486;28;20528;-29
2022/07/12 03:23:08;;;;;;;9.32;4.93;;;;;;;16.00;89.75;102343.94;4989900;28;20065;-28
2022/07/12 03:25:34;;;;;;;8.80;5.07;;;;;;;15.99;90.54;102342.25;4990398;28;20057;-28
2022/07/12 03:27:59;;;;;;;10.57;4.93;;;;;;;15.97;90.69;102338.03;4990042;28;20038;-29
2022/07/12 03:30:25;;;;;;;8.48;5.35;;;;;;;15.96;90.72;102337.19;4990134;28;20053;-28
2022/07/12 03:32:50;;;;;;;8.15;4.90;;;;;;;15.98;90.56;102337.00;4988943;28;20334;-28
2022/07/12 03:35:15;;;;;;;6.22;4.80;;;;;;;15.99;90.58;102342.25;4987897;28;20412;-28
2022/07/12 03:37:47;;;;;;;6.82;5.05;;;;;;;16.01;90.76;102345.66;4989756;28;20097;-28
2022/07/12 03:40:14;;;;;;;6.55;4.95;;;;;;;16.01;90.84;102344.81;4988854;28;20044;-30
2022/07/12 03:42:40;;;;;;;6.32;5.13;;;;;;;16.02;90.79;102352.75;4989933;28;20053;-28
2022/07/12 03:45:06;;;;;;;10.40;4.95;;;;;;;16.02;90.50;102344.59;4979440;28;20118;-28
2022/07/12 03:47:34;;;;;;;7.55;5.00;;;;;;;16.02;90.28;102350.03;4989939;28;20136;-28
2022/07/12 03:50:01;;;;;;;9.38;5.22;;;;;;;16.02;90.11;102347.31;4991013;28;20042;-28
2022/07/12 03:52:27;;;;;;;7.50;5.00;;;;;;;16.01;89.73;102350.25;4989753;28;20053;-29
2022/07/12 03:54:52;;;;;;;7.32;4.93;;;;;;;16.03;90.19;102348.16;4989769;28;20054;-28
2022/07/12 03:57:17;;;;;;;11.55;4.70;;;;;;;16.02;90.05;102346.50;4989955;28;20066;-28
2022/07/12 03:59:44;;;;;;;6.70;4.82;;;;;;;16.06;90.22;102344.25;4988920;28;20034;-28
2022/07/12 04:02:09;;;;;;;6.97;5.07;;;;;;;16.07;90.43;102349.50;4989644;28;20158;-28
2022/07/12 04:04:35;;;;;;;9.07;4.95;;;;;;;16.12;90.48;102343.53;4993631;28;20172;-28
2022/07/12 04:07:00;;;;;;;11.43;5.10;;;;;;;16.18;90.69;102350.94;4975778;28;20412;-28
2022/07/12 04:09:25;;;;;;;12.48;5.72;;;;;;;16.26;90.96;102359.03;4993129;28;20038;-28
2022/07/12 04:11:51;;;;;;;11.27;5.07;;;;;;;16.34;90.86;102356.22;4993175;28;20034;-28
2022/07/12 04:14:17;;;;;;;8.57;5.18;;;;;;;16.44;90.78;102356.81;4993177;28;20038;-27
2022/07/12 04:16:42;;;;;;;12.80;4.80;;;;;;;16.54;90.03;102355.75;4992751;28;20030;-28
2022/07/12 04:19:10;;;;;;;5.82;4.90;;;;;;;16.62;89.25;102358.38;4992900;28;20029;-27
2022/07/12 04:21:36;;;;;;;;;;;;;;;16.71;88.78;102351.81;4993186;28;20038;-27
2022/07/12 04:24:01;;;;;;;10.65;5.82;;;;;;;16.81;88.26;102360.56;4993785;28;20364;-27
2022/07/12 04:26:27;;;;;;;7.03;5.22;;;;;;;16.91;88.26;102354.03;4991520;28;20041;-27
2022/07/12 04:28:52;;;;;;;9.82;5.28;;;;;;;16.98;88.06;102352.22;4992010;28;20394;-27
2022/07/12 04:31:17;;;;;;;11.90;5.35;;;;;;;17.09;87.75;102351.78;4992416;28;20389;-27
2022/07/12 04:33:43;;;;;;;9.00;5.25;;;;;;;17.15;87.30;102359.19;4990979;28;20043;-28
2022/07/12 04:36:08;;;;;;;9.18;5.20;;;;;;;17.22;87.34;102359.25;4992952;28;20027;-26
2022/07/12 04:38:33;;;;;;;9.70;5.90;;;;;;;17.28;87.08;102356.63;4991161;28;20311;-27
2022/07/12 04:40:59;;;;;;;8.35;5.70;;;;;;;17.36;86.31;102352.97;4991723;28;20084;-27
2022/07/12 04:43:24;;;;;;;13.38;5.45;;;;;;;17.45;86.32;102354.53;4991946;28;20140;-26
2022/07/12 04:45:50;;;;;;;9.27;5.03;;;;;;;17.54;85.84;102356.13;4990132;28;20065;-27
2022/07/12 04:48:16;;;;;;;12.95;5.85;;;;;;;17.64;85.42;102355.81;4991075;28;20041;-27
2022/07/12 04:50:41;;;;;;;8.23;5.97;;;;;;;17.72;84.90;102354.84;4992899;28;20035;-28
2022/07/12 04:53:07;;;;;;;7.63;5.90;;;;;;;17.82;84.53;102354.56;4992885;28;20434;-28
2022/07/12 04:55:32;;;;;;;11.57;6.30;;;;;;;17.75;84.13;102355.31;4992610;28;20454;-28
2022/07/12 04:57:57;;;;;;;11.52;5.85;;;;;;;17.61;84.64;102345.28;4991673;28;20030;-28
2022/07/12 05:00:23;;;;;;;7.45;6.18;;;;;;;17.58;85.15;102359.28;4992286;28;20031;-27
2022/07/12 05:02:48;;;;;;;7.40;5.40;;;;;;;17.63;85.47;102356.84;4992243;28;20030;-28
2022/07/12 05:05:14;;;;;;;11.90;6.78;;;;;;;17.65;85.83;102357.50;4992562;28;20034;-28
2022/07/12 05:07:40;;;;;;;11.63;6.65;;;;;;;17.75;85.53;102358.03;4991680;28;20062;-28
2022/07/12 05:10:05;;;;;;;8.45;6.22;;;;;;;17.85;85.14;102356.88;4992280;28;20038;-28
2022/07/12 05:12:31;;;;;;;10.18;6.70;;;;;;;17.90;85.07;102362.59;4992117;28;20454;-28
2022/07/12 05:14:56;;;;;;;13.52;6.88;;;;;;;17.91;84.68;102372.47;4990771;28;20024;-29
2022/07/12 05:17:21;;;;;;;11.73;6.70;;;;;;;18.02;84.47;102371.97;4991575;28;20034;-28
2022/07/12 05:19:47;;;;;;;10.90;6.18;;;;;;;18.10;83.94;102376.44;4992444;28;20030;-27
2022/07/12 05:22:12;;;;;;;11.30;7.03;;;;;;;18.14;83.70;102384.03;4991244;28;20109;-28
2022/07/12 05:24:37;;;;;;;10.73;7.78;;;;;;;18.07;83.70;102380.41;4990821;28;20117;-27
2022/07/12 05:27:04;;;;;;;11.15;7.88;;;;;;;18.00;83.58;102384.94;4991465;28;20096;-28
2022/07/12 05:29:29;;;;;;;11.88;7.97;;;;;;;18.03;84.18;102387.25;4992139;28;20117;-28
2022/07/12 05:31:56;;;;;;;10.68;8.40;;;;;;;18.05;83.87;102385.19;4992372;28;20438;-28
2022/07/12 05:34:21;;;;;;;14.20;8.73;;;;;;;18.03;83.96;102389.16;4991501;28;20501;-29
2022/07/12 05:36:46;;;;;;;12.00;8.25;;;;;;;18.06;84.49;102384.16;4998464;28;20054;-27
2022/07/12 05:39:12;;;;;;;12.60;7.80;;;;;;;18.23;83.99;102386.63;4990349;28;20049;-27
2022/07/12 05:41:37;;;;;;;14.93;7.80;;;;;;;18.30;83.60;102390.25;4988949;28;20084;-28
2022/07/12 05:44:03;;;;;;;14.63;7.88;;;;;;;18.39;83.62;102384.47;4990224;28;20393;-27
2022/07/12 05:46:28;;;;;;;14.18;8.57;;;;;;;18.53;83.14;102390.88;4989489;28;20030;-28
2022/07/12 05:48:54;;;;;;;10.68;8.10;;;;;;;18.67;82.77;102385.50;4991329;28;20035;-27
2022/07/12 05:54:04;;;;;;;12.50;7.47;;;;;;;18.82;82.27;102384.41;4990101;28;20037;-29
2022/07/12 05:56:29;;;;;;;13.35;8.70;;;;;;;18.95;81.87;102382.81;4990345;28;20030;-28
2022/07/12 05:58:55;;;;;;;14.27;8.73;;;;;;;19.00;80.56;102386.63;4990056;28;20060;-29
2022/07/12 06:01:20;;;;;;;14.05;8.55;;;;;;;19.01;80.77;102385.59;4991328;28;20029;-27
2022/07/12 06:03:46;;;;;;;12.25;9.02;;;;;;;18.90;80.86;102383.41;4989519;28;20421;-28
2022/07/12 06:06:11;;;;;;;13.38;9.73;;;;;;;18.86;81.02;102379.41;4991505;28;20018;-28
2022/07/12 06:08:37;;;;;;;15.35;10.30;;;;;;;18.77;81.39;102376.00;4991402;28;20190;-27
2022/07/12 06:11:02;;;;;;;16.90;10.27;;;;;;;18.82;81.60;102387.13;4989522;28;20481;-28
2022/07/12 06:13:28;;;;;;;16.52;9.32;;;;;;;18.96;81.15;102385.34;4990920;28;20049;-28
2022/07/12 06:15:55;;;;;;;15.90;9.80;;;;;;;18.94;80.88;102383.88;4989160;28;20038;-29
2022/07/12 06:18:21;;;;;;;11.60;9.18;;;;;;;19.06;81.06;102391.31;4973187;28;20478;-28
2022/07/12 06:20:46;;;;;;;25.90;11.13;;;;;;;19.12;80.09;102394.28;4989094;28;20030;-29
2022/07/12 06:23:12;;;;;;;13.43;9.55;;;;;;;19.34;79.68;102400.47;4991457;28;20038;-28
2022/07/12 06:25:38;;;;;;;16.40;9.70;;;;;;;19.67;78.57;102406.97;4991751;28;20422;-28
2022/07/12 06:28:04;;;;;;;10.70;9.13;;;;;;;20.01;76.29;102404.31;4991185;28;20113;-27
2022/07/12 06:30:30;;;;;;;15.90;9.30;;;;;;;20.52;74.77;102412.78;4989978;28;20046;-28
2022/07/12 06:32:56;;;;;;;15.95;8.43;;;;;;;20.74;72.70;102405.22;4989561;28;20030;-28
2022/07/12 06:35:21;;;;;;;11.00;8.43;;;;;;;20.95;72.37;102411.53;4987701;28;20046;-28
2022/07/12 06:37:46;;;;;;;11.65;8.75;;;;;;;20.82;72.16;102407.75;4990404;28;20516;-28
2022/07/12 06:40:12;;;;;;;11.57;8.40;;;;;;;20.97;71.98;102410.25;4988685;28;20034;-28
2022/07/12 06:42:38;;;;;;;10.73;8.38;;;;;;;21.23;71.46;102414.84;4989659;28;20311;-29
2022/07/12 06:45:04;;;;;;;13.05;7.60;;;;;;;21.47;69.77;102417.97;4989297;28;20460;-29
2022/07/12 06:47:29;;;;;;;9.52;6.72;;;;;;;21.67;67.76;102416.00;4990352;28;20034;-29
2022/07/12 06:49:54;;;;;;;12.70;5.68;;;;;;;21.87;66.06;102409.56;4989887;28;20022;-29
2022/07/12 06:52:20;;;;;;;8.82;5.95;;;;;;;22.16;65.36;102408.09;4991294;28;20090;-28
2022/07/12 06:54:45;;;;;;;11.93;5.68;;;;;;;22.35;63.50;102406.31;4991382;28;20077;-28
2022/07/12 06:57:10;;;;;;;9.68;6.00;;;;;;;22.09;63.72;102399.94;4990978;28;20533;-28
2022/07/12 06:59:36;;;;;;;24.38;6.30;;;;;;;22.23;63.13;102406.19;4989716;28;20485;-29
2022/07/12 07:02:01;;;;;;;10.48;5.65;;;;;;;22.35;63.22;102395.34;4990711;28;20437;-28
2022/07/12 07:04:27;;;;;;;9.18;5.47;;;;;;;22.73;62.40;102408.97;4989284;28;20030;-27
2022/07/12 07:06:52;;;;;;;11.30;5.47;;;;;;;23.37;61.04;102411.50;4989604;28;20082;-26
2022/07/12 07:09:18;;;;;;;13.82;4.90;;;;;;;24.01;59.06;102417.44;4990792;28;20030;-27
2022/07/12 07:11:44;;;;;;;11.52;4.97;;;;;;;24.36;56.60;102419.47;4991027;28;20117;-28
2022/07/12 07:14:09;;;;;;;13.13;4.57;;;;;;;25.18;54.37;102414.88;4989417;28;20101;-28
2022/07/12 07:16:35;;;;;;;10.85;4.60;;;;;;;25.13;53.62;102409.22;4973241;28;20033;-28
2022/07/12 07:19:02;;;;;;;5.70;4.40;;;;;;;24.85;53.71;102414.63;4989520;28;20031;-28
2022/07/12 07:21:28;;;;;;;8.57;4.70;;;;;;;24.81;54.44;102410.69;4990887;28;20154;-28
2022/07/12 07:23:53;;;;;;;8.40;4.53;;;;;;;24.35;55.47;102409.53;4989401;28;20530;-28
2022/07/12 07:26:19;;;;;;;11.73;5.22;;;;;;;24.13;55.97;102401.00;4990680;28;20027;-29
2022/07/12 07:31:28;;;;;;;6.93;4.90;;;;;;;23.26;58.61;102404.84;4990633;28;20041;-26
2022/07/12 07:33:53;;;;;;;9.73;4.75;;;;;;;23.12;60.21;102401.41;4990397;28;20062;-28
2022/07/12 07:36:19;;;;;;;7.13;5.10;;;;;;;22.95;60.66;102405.78;4991012;28;20062;-29
2022/07/12 07:38:44;;;;;;;11.40;4.95;;;;;;;23.44;60.09;102404.00;4994064;28;20422;-28
2022/07/12 07:41:10;;;;;;;12.10;4.70;;;;;;;24.18;57.75;102406.63;4992652;28;20037;-25
2022/07/12 07:43:35;;;;;;;14.45;5.70;;;;;;;23.94;55.56;102409.31;4993965;28;20389;-29
2022/07/12 07:46:01;;;;;;;11.18;5.85;;;;;;;23.72;55.66;102408.94;4992753;28;20112;-28
2022/07/12 07:48:27;;;;;;;8.45;5.00;;;;;;;23.66;56.04;102409.84;4992839;28;20030;-28
2022/07/12 07:50:53;;;;;;;5.38;4.88;;;;;;;23.51;56.50;102410.25;4992680;28;20397;-28
2022/07/12 07:53:18;;;;;;;20.92;5.57;;;;;;;23.52;57.07;102411.09;4994148;28;20051;-28
2022/07/12 07:55:43;;;;;;;9.00;4.85;;;;;;;24.40;55.46;102420.66;4993384;28;20543;-28
2022/07/12 07:58:10;;;;;;;12.57;6.07;;;;;;;24.61;53.27;102420.13;4993778;28;20031;-29
2022/07/12 08:00:35;;;;;;;16.52;6.35;;;;;;;24.58;54.47;102420.59;4993518;28;20137;-29
2022/07/12 08:03:01;;;;;;;8.00;5.93;;;;;;;24.40;54.08;102418.75;4994014;28;20034;-27
2022/07/12 08:05:26;;;;;;;10.85;4.90;;;;;;;24.78;54.67;102419.41;4993738;28;20065;-27
2022/07/12 08:07:51;;;;;;;12.73;6.60;;;;;;;25.07;53.13;102418.47;4993466;28;20449;-27
2022/07/12 08:10:17;;;;;;;9.32;6.25;;;;;;;25.21;52.69;102423.75;4993593;28;20030;-28
2022/07/12 08:12:42;;;;;;;8.93;6.25;;;;;;;25.67;52.49;102416.44;4992202;28;20494;-28
2022/07/12 08:15:08;;;;;;;16.45;6.80;;;;;;;26.43;49.63;102417.03;4993729;28;20023;-29
2022/07/12 08:17:34;;;;;;;12.73;6.57;;;;;;;26.11;50.71;102416.75;4993746;28;20026;-28
2022/07/12 08:20:00;;;;;;;8.82;5.68;;;;;;;27.64;48.23;102410.78;4992449;28;20069;-29
2022/07/12 08:22:25;;;;;;;10.88;5.10;;;;;;;28.62;44.36;102419.00;4993695;28;20030;-29
2022/07/12 08:24:50;;;;;;;10.13;6.07;;;;;;;28.71;44.36;102421.25;4993852;28;20454;-29
2022/07/12 08:27:17;;;;;;;10.02;5.22;;;;;;;29.67;42.20;102406.25;4992259;28;20121;-28
2022/07/12 08:29:43;;;;;;;13.15;6.60;;;;;;;28.40;43.66;102409.91;4993800;28;20038;-29
2022/07/12 08:32:08;;;;;;;9.30;6.20;;;;;;;28.15;44.41;102408.59;4992345;28;20417;-30
2022/07/12 08:34:34;;;;;;;13.15;6.10;;;;;;;27.03;46.01;102415.50;4991763;28;20046;-28
2022/07/12 08:36:59;;;;;;;13.52;5.97;;;;;;;26.77;46.14;102408.75;4992792;28;20121;-28
2022/07/12 08:39:25;;;;;;;9.20;5.10;;;;;;;26.53;47.16;102408.13;4992190;28;20030;-28
2022/07/12 08:41:50;;;;;;;20.55;6.13;;;;;;;26.61;46.24;102404.94;4991892;28;20018;-28
2022/07/12 08:44:16;;;;;;;14.27;6.75;;;;;;;25.96;48.45;102404.38;4992039;28;20485;-29
2022/07/12 08:46:41;;;;;;;10.45;6.82;;;;;;;26.19;48.89;102403.38;4993141;28;20196;-28
2022/07/12 08:49:07;;;;;;;13.93;6.63;;;;;;;26.15;49.90;102401.38;4992004;28;20041;-29
2022/07/12 08:51:32;;;;;;;9.60;6.22;;;;;;;25.99;49.83;102403.03;4975070;28;20138;-28
2022/07/12 08:54:06;;;;;;;12.98;7.03;;;;;;;26.20;49.34;102405.06;4993146;28;20062;-28
2022/07/12 08:56:39;;;;;;;14.70;6.93;;;;;;;25.62;52.04;102408.91;4992882;28;20108;-28
2022/07/12 08:59:21;;;;;;;15.48;7.70;;;;;;;25.48;51.22;102418.53;4991896;28;20049;-29
2022/07/12 09:01:47;;;;;;;10.93;6.68;;;;;;;25.53;51.05;102415.88;4992839;28;20488;-30
2022/07/12 09:04:14;;;;;;;11.82;6.47;;;;;;;25.57;51.50;102417.09;4992997;28;20026;-29
2022/07/12 09:06:40;;;;;;;14.43;7.65;;;;;;;24.96;52.50;102416.53;4991770;28;20031;-29
2022/07/12 09:09:08;;;;;;;12.40;6.90;;;;;;;25.02;53.40;102423.03;4992984;28;20026;-29
2022/07/12 09:11:35;;;;;;;7.97;6.65;;;;;;;25.58;52.01;102413.22;4992889;28;20501;-29
2022/07/12 09:14:02;;;;;;;9.93;6.20;;;;;;;25.93;50.95;102418.63;4987768;28;20031;-27
2022/07/12 09:16:27;;;;;;;;;;;;;;;26.44;48.33;102416.78;4981010;28;20037;-28
2022/07/12 09:19:19;;;;;;;9.60;6.82;;;;;;;26.47;48.54;102409.94;4990793;28;19909;-27
2022/07/12 09:21:53;;;;;;;12.38;7.88;;;;;;;26.22;49.36;102411.16;4989845;28;20231;-28
2022/07/12 09:24:19;;;;;;;17.48;7.05;;;;;;;26.73;48.33;102411.22;4990081;28;20494;-28
2022/07/12 09:26:45;;;;;;;7.23;6.47;;;;;;;27.24;46.70;102417.47;4989988;28;20192;-29
2022/07/12 09:29:11;;;;;;;11.32;6.93;;;;;;;27.19;46.01;102419.34;4990003;28;20030;-28
2022/07/12 09:37:14;;;;;;;9.20;5.55;;;;;;;27.29;46.04;102406.50;4988668;28;20084;-29
2022/07/12 09:39:40;;;;;;;8.27;6.15;;;;;;;27.55;44.65;102398.53;4988551;28;20034;-29
2022/07/12 09:42:09;;;;;;;8.90;6.32;;;;;;;27.34;45.32;102406.56;4987538;28;20038;-28
2022/07/12 09:44:35;;;;;;;13.27;6.60;;;;;;;27.50;45.33;102401.22;4988894;28;20113;-29
2022/07/12 09:47:01;;;;;;;9.68;7.13;;;;;;;27.48;44.51;102403.41;4989266;28;20105;-28
2022/07/12 09:49:27;;;;;;;11.18;6.07;;;;;;;27.90;43.65;102398.09;4986649;28;20037;-28
2022/07/12 09:51:56;;;;;;;9.02;5.65;;;;;;;27.90;43.87;102394.50;4989818;28;20316;-29
2022/07/12 09:54:27;;;;;;;15.35;6.15;;;;;;;27.73;44.46;102400.94;4990753;28;20031;-29
2022/07/12 09:56:53;;;;;;;11.18;5.07;;;;;;;27.63;45.05;102402.75;4988956;28;20030;-29
2022/07/12 09:59:22;;;;;;;13.35;5.60;;;;;;;27.86;44.75;102413.56;4988749;28;20331;-28
2022/07/12 10:01:48;;;;;;;13.40;5.90;;;;;;;27.99;43.47;102409.56;4988453;28;20092;-28
2022/07/12 10:04:15;;;;;;;15.45;5.30;;;;;;;28.83;43.19;102419.13;4990794;28;20034;-29
2022/07/12 10:06:40;;;;;;;8.07;5.80;;;;;;;29.02;40.71;102408.44;4988821;28;20038;-29
2022/07/12 10:09:06;;;;;;;9.10;5.55;;;;;;;29.48;40.45;102417.81;4988508;28;20081;-28
2022/07/12 10:11:31;;;;;;;9.68;6.28;;;;;;;29.57;39.66;102423.69;4987822;28;20027;-29
2022/07/12 10:13:57;;;;;;;9.40;5.18;;;;;;;30.15;39.78;102420.81;4971393;28;20068;-29
2022/07/12 10:16:26;;;;;;;7.80;5.70;;;;;;;30.72;38.33;102428.03;4988556;28;20457;-28
2022/07/12 10:19:35;;;;;;;7.82;5.43;;;;;;;30.84;36.83;102425.81;4989898;28;20101;-28
2022/07/12 10:22:02;;;;;;;4.85;4.35;;;;;;;30.68;38.13;102423.34;4989838;28;20122;-27
2022/07/12 10:24:48;;;;;;;11.07;5.18;;;;;;;30.38;38.11;102422.22;4990170;28;20085;-27
2022/07/12 10:27:13;;;;;;;9.20;5.07;;;;;;;30.76;36.85;102423.59;4990307;28;20362;-28
2022/07/12 10:29:43;;;;;;;11.37;4.50;;;;;;;30.66;35.94;102422.78;4989712;28;20034;-28
2022/07/12 10:32:30;;;;;;;9.20;4.45;;;;;;;30.54;36.37;102426.66;4988007;28;20030;-28
2022/07/12 10:35:01;;;;;;;9.13;4.80;;;;;;;29.82;37.85;102428.50;4988005;28;20383;-29
2022/07/12 10:37:27;;;;;;;13.43;5.45;;;;;;;30.22;37.77;102424.13;4981685;28;20033;-28
2022/07/12 10:40:18;;;;;;;10.35;4.03;;;;;;;30.61;34.41;102429.16;4971455;28;20068;-29
2022/07/12 10:43:05;;;;;;;6.25;4.30;;;;;;;31.10;35.29;102438.81;4986944;28;20053;-29
2022/07/12 10:45:42;;;;;;;7.90;5.78;;;;;;;31.98;35.30;102418.69;4990594;28;20539;-29
2022/07/12 10:48:08;;;;;;;;;;;;;;;32.25;32.79;102420.16;4988257;28;20553;-28
2022/07/12 10:50:57;;;;;;;9.02;3.90;;;;;;;31.63;34.37;102420.56;4990731;28;19997;-29
2022/07/12 10:53:50;;;;;;;8.48;4.47;;;;;;;31.81;33.78;102415.44;4990510;28;20457;-28
2022/07/12 10:56:25;;;;;;;5.90;3.42;;;;;;;32.18;33.75;102419.66;4989232;28;20124;-29
2022/07/12 10:58:55;;;;;;;9.73;4.05;;;;;;;31.48;32.96;102407.53;4989972;28;20035;-28
2022/07/12 11:01:21;;;;;;;5.03;3.03;;;;;;;31.60;31.42;102417.53;4989837;28;20030;-28
2022/07/12 11:03:51;;;;;;;4.73;3.10;;;;;;;31.32;32.65;102419.00;4990939;28;20043;-29
2022/07/12 11:06:19;;;;;;;8.75;3.92;;;;;;;31.13;33.26;102407.69;4990315;28;20022;-27
2022/07/12 11:09:03;;;;;;;7.03;4.57;;;;;;;30.28;34.53;102398.06;4990046;28;20037;-28
2022/07/12 11:11:48;;;;;;;11.25;5.90;;;;;;;30.49;35.11;102400.81;4991507;28;20038;-28
2022/07/12 11:14:22;;;;;;;9.50;6.13;;;;;;;30.44;35.52;102400.81;4996263;28;20118;-29
2022/07/12 11:16:48;;;;;;;10.15;5.00;;;;;;;30.94;35.71;102393.53;4995244;28;20026;-28
2022/07/12 11:19:14;;;;;;;10.45;6.95;;;;;;;30.62;35.97;102394.69;4977930;28;20096;-28
2022/07/12 11:21:45;;;;;;;15.85;6.88;;;;;;;29.80;36.69;102394.63;4993558;28;20485;-28
2022/07/12 11:24:18;;;;;;;17.58;8.65;;;;;;;29.62;38.33;102400.66;4993135;28;20117;-29
2022/07/12 11:26:43;;;;;;;15.30;8.57;;;;;;;30.52;36.66;102394.72;4993268;28;20121;-28
2022/07/12 11:29:11;;;;;;;9.13;7.13;;;;;;;31.09;36.42;102393.50;4993810;28;20027;-28
2022/07/12 11:31:36;;;;;;;14.68;6.65;;;;;;;30.93;35.39;102400.22;4994930;28;20050;-29